createdAt,value
2022-09-07T00:00:59.127Z,26.86
2022-09-07T00:01:59.123Z,26.91
2022-09-07T00:02:59.138Z,26.80
2022-09-07T00:03:59.125Z,26.75
2022-09-07T00:04:59.073Z,26.80
2022-09-07T00:05:59.066Z,26.86
2022-09-07T00:06:59.044Z,26.86
2022-09-07T00:07:59.031Z,27.07
2022-09-07T00:08:59.014Z,26.80
2022-09-07T00:09:59.003Z,26.91
2022-09-07T00:10:58.991Z,26.86
2022-09-07T00:11:58.984Z,26.80
2022-09-07T00:12:58.963Z,26.96
2022-09-07T00:13:58.949Z,26.86
2022-09-07T00:14:58.934Z,26.86
2022-09-07T00:15:58.949Z,26.86
2022-09-07T00:16:58.910Z,26.86
2022-09-07T00:17:58.901Z,26.91
2022-09-07T00:18:59.229Z,27.18
2022-09-07T00:19:58.865Z,26.91
2022-09-07T00:20:58.860Z,26.80
2022-09-07T00:21:58.842Z,26.91
2022-09-07T00:22:59.130Z,26.80
2022-09-07T00:23:58.813Z,26.96
2022-09-07T00:24:58.800Z,26.96
2022-09-07T00:25:58.784Z,26.91
2022-09-07T00:26:58.773Z,26.86
2022-09-07T00:27:58.762Z,26.80
2022-09-07T00:28:58.740Z,26.86
2022-09-07T00:29:58.729Z,26.86
2022-09-07T00:30:58.792Z,27.23
2022-09-07T00:31:58.702Z,26.86
2022-09-07T00:32:58.691Z,27.02
2022-09-07T00:33:58.684Z,26.86
2022-09-07T00:34:58.662Z,26.64
2022-09-07T00:35:58.648Z,26.86
2022-09-07T00:36:58.639Z,26.91
2022-09-07T00:37:58.627Z,26.86
2022-09-07T00:38:58.613Z,26.96
2022-09-07T00:39:58.681Z,26.80
2022-09-07T00:40:58.583Z,26.86
2022-09-07T00:41:58.570Z,26.80
2022-09-07T00:42:58.552Z,27.12
2022-09-07T00:43:58.546Z,26.86
2022-09-07T00:44:58.521Z,26.96
2022-09-07T00:45:58.512Z,27.61
2022-09-07T00:46:58.549Z,26.86
2022-09-07T00:47:58.486Z,26.96
2022-09-07T00:48:58.466Z,26.75
2022-09-07T00:49:58.452Z,26.91
2022-09-07T00:50:58.456Z,27.55
2022-09-07T00:51:58.428Z,26.86
2022-09-07T00:52:58.415Z,26.91
2022-09-07T00:53:58.418Z,26.80
2022-09-07T00:54:58.388Z,26.86
2022-09-07T00:55:58.377Z,26.86
2022-09-07T00:56:58.360Z,26.75
2022-09-07T00:57:58.349Z,27.39
2022-09-07T00:58:58.328Z,26.86
2022-09-07T00:59:58.320Z,26.86
2022-09-07T01:00:58.307Z,26.86
2022-09-07T01:01:58.456Z,26.86
2022-09-07T01:02:58.376Z,27.34
2022-09-07T01:03:58.273Z,26.80
2022-09-07T01:04:58.255Z,26.80
2022-09-07T01:05:58.240Z,26.91
2022-09-07T01:06:58.230Z,26.86
2022-09-07T01:07:58.218Z,26.86
2022-09-07T01:08:58.195Z,26.86
2022-09-07T01:09:58.182Z,27.07
2022-09-07T01:10:58.171Z,26.80
2022-09-07T01:11:58.156Z,26.86
2022-09-07T01:14:05.072Z,26.91
2022-09-07T01:15:05.005Z,26.86
2022-09-07T01:16:05.093Z,26.96
2022-09-07T01:17:04.976Z,26.80
2022-09-07T01:18:04.960Z,27.07
2022-09-07T01:19:04.945Z,26.48
2022-09-07T01:20:04.938Z,26.91
2022-09-07T01:21:04.920Z,26.86
2022-09-07T01:22:04.913Z,26.86
2022-09-07T01:23:04.892Z,26.96
2022-09-07T01:24:05.182Z,26.86
2022-09-07T01:25:04.867Z,26.75
2022-09-07T01:26:04.867Z,26.91
2022-09-07T01:27:04.844Z,26.96
2022-09-07T01:28:04.832Z,26.80
2022-09-07T01:29:04.815Z,26.86
2022-09-07T01:30:04.799Z,26.80
2022-09-07T01:31:04.848Z,26.91
2022-09-07T01:32:04.775Z,26.96
2022-09-07T01:33:04.960Z,26.80
2022-09-07T01:34:04.751Z,26.75
2022-09-07T01:35:04.736Z,26.43
2022-09-07T01:36:04.730Z,26.86
2022-09-07T01:37:04.709Z,26.86
2022-09-07T01:38:04.698Z,26.48
2022-09-07T01:39:04.695Z,26.96
2022-09-07T01:40:04.736Z,27.07
2022-09-07T01:41:04.651Z,26.86
2022-09-07T01:42:04.646Z,26.80
2022-09-07T01:43:04.624Z,26.48
2022-09-07T01:44:04.615Z,26.96
2022-09-07T01:45:04.800Z,26.48
2022-09-07T01:46:04.684Z,26.96
2022-09-07T01:47:04.575Z,26.86
2022-09-07T01:48:04.566Z,26.86
2022-09-07T01:49:04.550Z,26.69
2022-09-07T01:50:04.535Z,26.80
2022-09-07T01:51:04.521Z,27.02
2022-09-07T01:52:04.510Z,26.91
2022-09-07T01:53:04.491Z,26.86
2022-09-07T01:54:04.493Z,26.59
2022-09-07T01:55:04.471Z,26.75
2022-09-07T01:56:04.460Z,26.69
2022-09-07T01:57:04.441Z,26.86
2022-09-07T01:58:04.429Z,26.48
2022-09-07T01:59:04.413Z,26.43
2022-09-07T02:00:04.404Z,26.86
2022-09-07T02:01:04.390Z,26.75
2022-09-07T02:02:04.439Z,26.91
2022-09-07T02:03:04.450Z,26.75
2022-09-07T02:04:04.343Z,27.34
2022-09-07T02:05:04.338Z,26.53
2022-09-07T02:06:04.331Z,26.48
2022-09-07T02:07:04.313Z,26.91
2022-09-07T02:08:04.295Z,26.86
2022-09-07T02:09:04.288Z,26.80
2022-09-07T02:10:04.269Z,26.48
2022-09-07T02:11:04.261Z,26.37
2022-09-07T02:12:04.240Z,26.80
2022-09-07T02:13:04.231Z,26.48
2022-09-07T02:14:04.209Z,26.75
2022-09-07T02:15:04.204Z,26.69
2022-09-07T02:16:04.276Z,26.96
2022-09-07T02:17:04.173Z,26.69
2022-09-07T02:18:04.157Z,26.37
2022-09-07T02:19:04.141Z,26.80
2022-09-07T02:20:04.132Z,27.02
2022-09-07T02:21:04.119Z,26.86
2022-09-07T02:22:04.116Z,27.07
2022-09-07T02:23:04.093Z,26.43
2022-09-07T02:24:04.088Z,26.75
2022-09-07T02:25:04.066Z,26.86
2022-09-07T02:26:04.058Z,26.96
2022-09-07T02:27:04.041Z,26.96
2022-09-07T02:28:04.082Z,26.75
2022-09-07T02:29:04.012Z,26.43
2022-09-07T02:30:04.003Z,26.80
2022-09-07T02:31:04.027Z,26.37
2022-09-07T02:32:03.984Z,26.37
2022-09-07T02:33:03.958Z,26.86
2022-09-07T02:34:03.952Z,26.59
2022-09-07T02:35:03.928Z,26.37
2022-09-07T02:36:03.922Z,27.07
2022-09-07T02:37:03.913Z,26.43
2022-09-07T02:38:03.904Z,26.59
2022-09-07T02:39:03.885Z,26.91
2022-09-07T02:40:03.971Z,26.80
2022-09-07T02:41:03.855Z,26.69
2022-09-07T02:42:03.846Z,26.69
2022-09-07T02:43:03.827Z,26.96
2022-09-07T02:44:03.819Z,26.53
2022-09-07T02:45:03.803Z,26.32
2022-09-07T02:46:03.882Z,26.80
2022-09-07T02:47:03.768Z,26.43
2022-09-07T02:48:03.761Z,26.43
2022-09-07T02:49:03.744Z,26.48
2022-09-07T02:50:04.175Z,26.80
2022-09-07T02:51:03.719Z,26.75
2022-09-07T02:52:03.710Z,26.86
2022-09-07T02:53:03.697Z,26.75
2022-09-07T02:54:03.684Z,26.43
2022-09-07T02:55:03.667Z,26.43
2022-09-07T02:56:03.659Z,26.96
2022-09-07T02:57:03.645Z,26.91
2022-09-07T02:58:03.630Z,26.48
2022-09-07T02:59:03.619Z,26.69
2022-09-07T03:00:03.603Z,26.53
2022-09-07T03:01:03.641Z,26.48
2022-09-07T03:02:03.571Z,26.86
2022-09-07T03:03:03.556Z,26.80
2022-09-07T03:04:03.545Z,26.53
2022-09-07T03:05:03.528Z,26.91
2022-09-07T03:06:03.521Z,26.53
2022-09-07T03:07:03.505Z,26.86
2022-09-07T03:08:03.496Z,26.80
2022-09-07T03:09:03.478Z,26.48
2022-09-07T03:10:03.477Z,26.91
2022-09-07T03:11:03.444Z,26.80
2022-09-07T03:12:03.437Z,26.86
2022-09-07T03:13:03.428Z,26.80
2022-09-07T03:14:03.412Z,26.75
2022-09-07T03:15:03.391Z,26.21
2022-09-07T03:16:03.497Z,26.86
2022-09-07T03:17:03.366Z,26.75
2022-09-07T03:18:03.374Z,26.96
2022-09-07T03:19:03.349Z,26.80
2022-09-07T03:20:03.335Z,26.86
2022-09-07T03:21:03.324Z,26.91
2022-09-07T03:22:03.301Z,26.43
2022-09-07T03:23:03.303Z,27.07
2022-09-07T03:24:03.275Z,26.48
2022-09-07T03:25:03.260Z,26.86
2022-09-07T03:26:03.247Z,26.32
2022-09-07T03:27:03.233Z,26.43
2022-09-07T03:28:03.227Z,26.48
2022-09-07T03:29:03.206Z,26.43
2022-09-07T03:30:36.895Z,26.96
2022-09-07T03:31:36.629Z,27.07
2022-09-07T03:32:36.608Z,26.48
2022-09-07T03:33:36.595Z,26.80
2022-09-07T03:34:36.582Z,26.59
2022-09-07T03:35:36.574Z,26.53
2022-09-07T03:36:36.547Z,26.43
2022-09-07T03:37:36.542Z,26.59
2022-09-07T03:38:36.519Z,26.64
2022-09-07T03:39:36.599Z,26.69
2022-09-07T03:40:36.494Z,26.86
2022-09-07T03:41:36.484Z,26.91
2022-09-07T03:42:36.475Z,26.96
2022-09-07T03:43:36.461Z,26.53
2022-09-07T03:44:36.446Z,26.48
2022-09-07T03:45:36.439Z,26.48
2022-09-07T03:46:36.421Z,26.43
2022-09-07T03:47:36.406Z,26.43
2022-09-07T03:48:36.385Z,26.43
2022-09-07T03:49:36.383Z,26.53
2022-09-07T03:50:36.366Z,26.37
2022-09-07T03:51:36.509Z,26.80
2022-09-07T03:52:36.341Z,27.07
2022-09-07T03:53:36.330Z,26.86
2022-09-07T03:54:39.414Z,26.32
2022-09-07T03:55:36.300Z,26.48
2022-09-07T03:56:36.282Z,26.80
2022-09-07T03:57:36.274Z,26.53
2022-09-07T03:58:36.256Z,26.43
2022-09-07T03:59:36.241Z,26.43
2022-09-07T04:00:36.224Z,26.43
2022-09-07T04:01:36.266Z,26.48
2022-09-07T04:02:36.269Z,27.02
2022-09-07T04:03:36.190Z,26.96
2022-09-07T04:04:36.172Z,26.91
2022-09-07T04:05:36.162Z,26.91
2022-09-07T04:06:36.149Z,26.48
2022-09-07T04:07:36.139Z,26.86
2022-09-07T04:08:36.121Z,26.43
2022-09-07T04:09:36.118Z,26.53
2022-09-07T04:10:36.094Z,26.43
2022-09-07T04:11:36.104Z,26.53
2022-09-07T04:12:36.069Z,26.53
2022-09-07T04:13:36.060Z,27.02
2022-09-07T04:14:36.036Z,26.43
2022-09-07T04:15:36.024Z,26.48
2022-09-07T04:16:36.073Z,26.48
2022-09-07T04:17:36.000Z,26.75
2022-09-07T04:18:35.985Z,26.86
2022-09-07T04:19:35.968Z,26.37
2022-09-07T04:20:35.960Z,26.59
2022-09-07T04:21:35.947Z,26.43
2022-09-07T04:22:35.940Z,26.43
2022-09-07T04:23:35.926Z,26.43
2022-09-07T04:24:35.918Z,26.48
2022-09-07T04:25:35.895Z,26.43
2022-09-07T04:26:35.886Z,26.53
2022-09-07T04:27:35.875Z,26.43
2022-09-07T04:28:35.860Z,26.43
2022-09-07T04:29:35.849Z,26.48
2022-09-07T04:30:35.894Z,26.53
2022-09-07T04:31:35.818Z,26.86
2022-09-07T04:32:35.803Z,26.86
2022-09-07T04:33:35.789Z,26.86
2022-09-07T04:34:35.772Z,26.59
2022-09-07T04:35:35.756Z,26.48
2022-09-07T04:36:35.765Z,26.48
2022-09-07T04:37:35.734Z,26.53
2022-09-07T04:38:35.727Z,26.53
2022-09-07T04:39:35.781Z,26.48
2022-09-07T04:40:35.698Z,26.37
2022-09-07T04:41:35.681Z,26.64
2022-09-07T04:42:35.668Z,26.91
2022-09-07T04:43:35.652Z,26.48
2022-09-07T04:44:35.648Z,26.69
2022-09-07T04:45:35.654Z,26.86
2022-09-07T04:46:35.621Z,26.48
2022-09-07T04:47:35.599Z,26.48
2022-09-07T04:48:35.588Z,26.48
2022-09-07T04:49:35.568Z,26.59
2022-09-07T04:50:35.555Z,26.43
2022-09-07T04:51:35.540Z,26.43
2022-09-07T04:52:35.531Z,26.75
2022-09-07T04:53:35.512Z,26.48
2022-09-07T04:54:35.513Z,26.16
2022-09-07T04:55:35.492Z,26.48
2022-09-07T04:56:35.733Z,26.96
2022-09-07T04:57:35.464Z,26.53
2022-09-07T04:58:35.455Z,26.05
2022-09-07T04:59:35.438Z,26.48
2022-09-07T05:00:35.427Z,26.37
2022-09-07T05:01:35.484Z,26.43
2022-09-07T05:02:35.471Z,26.48
2022-09-07T05:03:35.379Z,26.48
2022-09-07T05:04:35.370Z,26.43
2022-09-07T05:05:35.352Z,26.43
2022-09-07T05:06:35.351Z,26.37
2022-09-07T05:07:35.333Z,26.86
2022-09-07T05:08:35.320Z,26.86
2022-09-07T05:09:35.304Z,26.86
2022-09-07T05:10:35.295Z,26.43
2022-09-07T05:11:35.278Z,26.91
2022-09-07T05:12:35.267Z,26.48
2022-09-07T05:13:35.252Z,26.96
2022-09-07T05:14:35.235Z,26.43
2022-09-07T05:15:35.223Z,26.26
2022-09-07T05:16:35.285Z,26.48
2022-09-07T05:17:35.201Z,26.32
2022-09-07T05:18:35.182Z,26.43
2022-09-07T05:19:35.170Z,26.48
2022-09-07T05:20:35.156Z,26.48
2022-09-07T05:21:35.136Z,26.48
2022-09-07T05:22:35.186Z,26.48
2022-09-07T05:23:35.114Z,26.48
2022-09-07T05:24:35.115Z,26.64
2022-09-07T05:25:35.091Z,26.48
2022-09-07T05:26:35.078Z,26.43
2022-09-07T05:27:35.055Z,26.69
2022-09-07T05:28:35.052Z,26.43
2022-09-07T05:31:35.006Z,26.43
2022-09-07T05:32:34.992Z,26.48
2022-09-07T05:34:35.059Z,26.53
2022-09-07T05:35:34.951Z,26.64
2022-09-07T05:36:34.996Z,26.37
2022-09-07T05:37:34.934Z,26.53
2022-09-07T05:38:34.911Z,26.53
2022-09-07T05:39:34.943Z,26.43
2022-09-07T05:40:39.898Z,26.37
2022-09-07T05:41:34.867Z,26.48
2022-09-07T05:42:34.860Z,26.43
2022-09-07T05:43:35.016Z,26.43
2022-09-07T05:44:50.160Z,26.64
2022-09-07T05:45:35.868Z,26.48
2022-09-07T05:46:34.804Z,26.37
2022-09-07T05:47:34.784Z,26.48
2022-09-07T05:48:34.779Z,26.53
2022-09-07T05:49:34.758Z,26.53
2022-09-07T05:50:34.744Z,26.43
2022-09-07T05:51:34.730Z,26.48
2022-09-07T05:52:34.720Z,26.48
2022-09-07T05:53:34.707Z,26.48
2022-09-07T05:54:34.698Z,26.48
2022-09-07T05:55:34.676Z,26.43
2022-09-07T05:56:34.667Z,26.43
2022-09-07T05:57:34.652Z,26.48
2022-09-07T05:58:34.637Z,26.48
2022-09-07T05:59:34.618Z,26.37
2022-09-07T06:00:34.610Z,26.43
2022-09-07T06:01:34.595Z,26.48
2022-09-07T06:02:39.521Z,26.43
2022-09-07T06:03:34.651Z,26.37
2022-09-07T06:04:34.555Z,26.48
2022-09-07T06:05:34.539Z,26.59
2022-09-07T06:06:34.534Z,26.53
2022-09-07T06:07:34.513Z,26.59
2022-09-07T06:08:34.501Z,26.48
2022-09-07T06:09:34.680Z,26.59
2022-09-07T06:10:49.942Z,26.80
2022-09-07T06:11:35.484Z,26.80
2022-09-07T06:12:34.454Z,26.43
2022-09-07T06:13:34.432Z,26.43
2022-09-07T06:14:34.416Z,26.53
2022-09-07T06:15:34.414Z,26.48
2022-09-07T06:16:34.495Z,26.43
2022-09-07T06:17:34.375Z,26.48
2022-09-07T06:18:34.369Z,26.48
2022-09-07T06:19:34.346Z,26.48
2022-09-07T06:20:34.341Z,26.64
2022-09-07T06:21:34.323Z,26.48
2022-09-07T06:22:34.320Z,26.43
2022-09-07T06:23:34.301Z,26.43
2022-09-07T06:24:34.289Z,26.43
2022-09-07T06:25:34.272Z,26.48
2022-09-07T06:26:34.259Z,26.48
2022-09-07T06:27:34.593Z,26.48
2022-09-07T06:28:34.228Z,26.43
2022-09-07T06:29:34.213Z,26.48
2022-09-07T06:30:34.205Z,26.75
2022-09-07T06:31:34.542Z,26.43
2022-09-07T06:32:49.626Z,26.43
2022-09-07T06:33:35.409Z,26.48
2022-09-07T06:34:34.151Z,26.69
2022-09-07T06:35:34.135Z,26.48
2022-09-07T06:36:34.129Z,26.64
2022-09-07T06:37:34.110Z,26.43
2022-09-07T06:38:34.096Z,26.53
2022-09-07T06:39:34.118Z,26.48
2022-09-07T06:40:34.071Z,26.48
2022-09-07T06:42:34.043Z,26.10
2022-09-07T06:43:34.024Z,26.53
2022-09-07T06:44:34.017Z,26.48
2022-09-07T06:45:34.027Z,26.43
2022-09-07T06:47:33.974Z,26.43
2022-09-07T06:48:33.966Z,26.53
2022-09-07T06:49:33.947Z,26.37
2022-09-07T06:50:33.940Z,26.10
2022-09-07T06:51:33.923Z,26.05
2022-09-07T06:53:33.937Z,26.43
2022-09-07T06:55:33.864Z,26.32
2022-09-07T06:56:33.854Z,26.43
2022-09-07T06:57:33.836Z,25.94
2022-09-07T06:58:33.830Z,26.10
2022-09-07T06:59:33.814Z,26.48
2022-09-07T07:00:34.003Z,26.10
2022-09-07T07:01:33.791Z,26.21
2022-09-07T07:02:33.775Z,26.05
2022-09-07T07:03:33.783Z,26.05
2022-09-07T07:04:39.626Z,26.10
2022-09-07T07:05:34.753Z,26.10
2022-09-07T07:06:33.719Z,26.05
2022-09-07T07:07:33.704Z,26.00
2022-09-07T07:08:33.696Z,26.32
2022-09-07T07:09:33.674Z,26.10
2022-09-07T07:10:33.675Z,26.05
2022-09-07T07:11:33.659Z,26.00
2022-09-07T07:12:58.664Z,26.16
2022-09-07T07:13:58.193Z,26.26
2022-09-07T07:14:58.176Z,26.21
2022-09-07T07:15:58.211Z,26.10
2022-09-07T07:16:58.208Z,25.57
2022-09-07T07:18:05.416Z,25.51
2022-09-07T07:18:59.137Z,26.10
2022-09-07T07:19:58.110Z,26.05
2022-09-07T07:20:58.089Z,26.05
2022-09-07T07:22:58.065Z,26.10
2022-09-07T07:23:58.056Z,25.46
2022-09-07T07:24:58.043Z,25.57
2022-09-07T07:25:58.033Z,25.51
2022-09-07T07:26:58.019Z,25.51
2022-09-07T07:29:57.977Z,25.51
2022-09-07T07:30:57.959Z,25.57
2022-09-07T07:31:57.950Z,25.62
2022-09-07T07:32:58.109Z,25.62
2022-09-07T07:33:58.004Z,25.51
2022-09-07T07:34:57.913Z,25.51
2022-09-07T07:35:57.905Z,25.51
2022-09-07T07:36:57.899Z,25.35
2022-09-07T07:42:00.367Z,25.51
2022-09-07T07:42:57.808Z,25.73
2022-09-07T07:43:57.829Z,25.62
2022-09-07T07:45:59.186Z,25.46
2022-09-07T07:46:57.826Z,25.41
2022-09-07T07:47:57.749Z,25.51
2022-09-07T07:48:57.735Z,25.41
2022-09-07T07:50:58.734Z,25.08
2022-09-07T07:53:58.078Z,25.19
2022-09-07T07:54:57.724Z,25.57
2022-09-07T07:55:57.653Z,26.00
2022-09-07T07:56:57.632Z,25.51
2022-09-07T07:57:57.621Z,25.19
2022-09-07T07:58:57.608Z,25.14
2022-09-07T07:59:57.599Z,25.24
2022-09-07T08:00:57.893Z,25.19
2022-09-07T08:01:57.658Z,25.08
2022-09-07T08:02:57.562Z,25.14
2022-09-07T08:03:57.543Z,25.19
2022-09-07T08:04:57.541Z,25.08
2022-09-07T08:05:57.577Z,25.08
2022-09-07T08:06:57.513Z,25.14
2022-09-07T08:07:57.499Z,25.08
2022-09-07T08:08:57.489Z,25.14
2022-09-07T08:09:57.473Z,25.14
2022-09-07T08:10:57.467Z,25.08
2022-09-07T08:11:57.450Z,25.08
2022-09-07T08:12:57.436Z,25.35
2022-09-07T08:13:57.423Z,25.46
2022-09-07T08:14:57.411Z,25.57
2022-09-07T08:15:57.465Z,25.46
2022-09-07T08:16:57.437Z,25.62
2022-09-07T08:17:57.477Z,25.51
2022-09-07T08:18:57.369Z,26.05
2022-09-07T08:19:57.351Z,26.05
2022-09-07T08:20:57.347Z,25.89
2022-09-07T08:21:57.345Z,26.05
2022-09-07T08:22:57.319Z,26.16
2022-09-07T08:23:57.302Z,26.21
2022-09-07T08:24:57.298Z,26.00
2022-09-07T08:25:57.277Z,26.16
2022-09-07T08:26:57.270Z,26.05
2022-09-07T08:27:57.252Z,26.16
2022-09-07T08:28:57.248Z,26.10
2022-09-07T08:29:57.228Z,26.05
2022-09-07T08:30:57.215Z,26.26
2022-09-07T08:31:57.249Z,26.05
2022-09-07T08:32:57.189Z,25.83
2022-09-07T08:33:57.172Z,26.21
2022-09-07T08:34:57.170Z,26.10
2022-09-07T08:35:57.151Z,26.05
2022-09-07T08:36:57.146Z,25.41
2022-09-07T08:37:57.155Z,26.05
2022-09-07T08:38:57.122Z,26.05
2022-09-07T08:39:57.182Z,26.26
2022-09-07T08:40:57.098Z,25.57
2022-09-07T08:41:57.084Z,26.10
2022-09-07T08:42:57.074Z,26.16
2022-09-07T08:43:57.058Z,26.16
2022-09-07T08:44:57.048Z,25.46
2022-09-07T08:45:57.028Z,26.10
2022-09-07T08:46:57.067Z,25.94
2022-09-07T08:47:57.006Z,26.00
2022-09-07T08:48:56.999Z,26.32
2022-09-07T08:49:56.989Z,26.10
2022-09-07T08:50:56.975Z,26.21
2022-09-07T08:51:56.965Z,25.41
2022-09-07T08:52:56.956Z,25.46
2022-09-07T08:53:56.958Z,25.57
2022-09-07T08:54:56.930Z,25.67
2022-09-07T08:55:56.913Z,25.51
2022-09-07T08:57:56.892Z,25.41
2022-09-07T08:58:56.885Z,25.83
2022-09-07T08:59:56.869Z,25.51
2022-09-07T09:05:57.046Z,25.14
2022-09-07T09:06:56.943Z,25.51
2022-09-07T09:07:56.769Z,25.57
2022-09-07T09:08:56.759Z,25.51
2022-09-07T09:09:56.762Z,25.51
2022-09-07T09:10:56.740Z,25.57
2022-09-07T09:11:56.721Z,25.67
2022-09-07T09:12:56.710Z,25.46
2022-09-07T09:13:56.694Z,25.62
2022-09-07T09:14:56.687Z,25.62
2022-09-07T09:15:56.751Z,25.14
2022-09-07T09:16:56.666Z,25.51
2022-09-07T09:17:56.651Z,25.51
2022-09-07T09:18:56.648Z,25.67
2022-09-07T09:19:56.627Z,24.98
2022-09-07T09:20:56.617Z,25.19
2022-09-07T09:21:56.598Z,25.14
2022-09-07T09:22:56.590Z,25.57
2022-09-07T09:23:56.576Z,25.08
2022-09-07T09:24:56.570Z,25.19
2022-09-07T09:25:56.571Z,25.19
2022-09-07T09:26:56.552Z,25.19
2022-09-07T09:27:56.528Z,25.14
2022-09-07T09:28:56.518Z,25.14
2022-09-07T09:29:56.506Z,25.14
2022-09-07T09:30:56.541Z,25.14
2022-09-07T09:31:56.487Z,25.19
2022-09-07T09:32:56.474Z,24.87
2022-09-07T09:33:56.456Z,25.62
2022-09-07T09:34:56.448Z,25.51
2022-09-07T09:35:56.431Z,25.24
2022-09-07T09:36:56.436Z,25.03
2022-09-07T09:37:56.413Z,25.14
2022-09-07T09:38:56.408Z,25.14
2022-09-07T09:39:59.269Z,25.19
2022-09-07T09:40:57.399Z,25.19
2022-09-07T09:41:56.381Z,25.14
2022-09-07T09:42:56.355Z,25.51
2022-09-07T09:43:56.334Z,25.30
2022-09-07T09:44:56.338Z,25.19
2022-09-07T09:46:12.446Z,25.19
2022-09-07T09:47:56.359Z,25.14
2022-09-07T09:48:56.287Z,25.03
2022-09-07T09:49:56.278Z,24.76
2022-09-07T09:52:56.238Z,25.19
2022-09-07T09:53:56.226Z,24.81
2022-09-07T09:55:03.333Z,25.14
2022-09-07T09:55:57.230Z,24.81
2022-09-07T09:56:56.189Z,24.76
2022-09-07T09:59:05.121Z,24.76
2022-09-07T10:00:00.372Z,24.71
2022-09-07T10:03:59.121Z,50.22
2022-09-07T10:04:56.103Z,50.22
2022-09-07T10:05:56.083Z,47.70
2022-09-07T10:06:56.074Z,40.28
2022-09-07T10:07:56.074Z,36.74
2022-09-07T10:08:56.051Z,35.72
2022-09-07T10:09:56.038Z,34.54
2022-09-07T10:10:56.029Z,33.41
2022-09-07T10:12:11.367Z,32.28
2022-09-07T10:12:57.030Z,31.31
2022-09-07T10:13:56.009Z,30.24
2022-09-07T10:14:55.978Z,30.45
2022-09-07T10:15:56.020Z,29.54
2022-09-07T10:16:56.008Z,29.70
2022-09-07T10:17:55.939Z,29.22
2022-09-07T10:18:55.928Z,29.27
2022-09-07T10:19:55.912Z,28.79
2022-09-07T10:20:55.901Z,28.90
2022-09-07T10:21:55.885Z,28.84
2022-09-07T10:22:55.879Z,28.25
2022-09-07T10:23:55.871Z,28.31
2022-09-07T10:24:55.965Z,28.31
2022-09-07T10:25:55.842Z,27.98
2022-09-07T10:26:55.832Z,27.82
2022-09-07T10:27:55.818Z,27.88
2022-09-07T10:29:11.707Z,27.93
2022-09-07T10:29:56.841Z,27.45
2022-09-07T10:30:55.944Z,27.39
2022-09-07T10:31:55.912Z,27.61
2022-09-07T10:32:55.770Z,27.45
2022-09-07T10:34:55.803Z,26.86
2022-09-07T10:35:55.732Z,27.39
2022-09-07T10:36:55.723Z,27.50
2022-09-07T10:37:56.477Z,26.86
2022-09-07T10:38:55.748Z,26.86
2022-09-07T10:40:00.140Z,26.86
2022-09-07T10:40:55.678Z,26.96
2022-09-07T10:41:55.667Z,26.32
2022-09-07T10:43:55.645Z,26.53
2022-09-07T10:44:55.709Z,26.53
2022-09-07T10:45:55.679Z,26.53
2022-09-07T10:46:57.155Z,26.48
2022-09-07T10:47:55.602Z,26.21
2022-09-07T10:48:55.590Z,26.48
2022-09-07T10:50:55.566Z,26.10
2022-09-07T10:51:55.555Z,26.16
2022-09-07T10:52:55.547Z,26.48
2022-09-07T10:54:55.613Z,26.10
2022-09-07T10:55:55.507Z,26.10
2022-09-07T10:56:55.502Z,26.16
2022-09-07T10:57:55.489Z,26.16
2022-09-07T10:59:03.577Z,26.10
2022-09-07T11:00:12.011Z,25.78
2022-09-07T11:00:56.473Z,26.05
2022-09-07T11:01:55.496Z,26.16
2022-09-07T11:03:55.476Z,26.05
2022-09-07T11:04:55.755Z,26.10
2022-09-07T11:05:55.386Z,26.00
2022-09-07T11:06:55.377Z,26.10
2022-09-07T11:07:55.366Z,25.14
2022-09-07T11:09:55.346Z,25.57
2022-09-07T11:10:55.331Z,26.16
2022-09-07T11:12:03.624Z,25.46
2022-09-07T11:12:56.324Z,26.16
2022-09-07T11:14:11.973Z,25.46
2022-09-07T11:14:56.301Z,25.46
2022-09-07T11:15:55.381Z,25.46
2022-09-07T11:16:55.329Z,25.51
2022-09-07T11:17:55.265Z,25.62
2022-09-07T11:19:34.960Z,25.57
2022-09-07T11:19:56.267Z,25.57
2022-09-07T11:20:55.283Z,25.46
2022-09-07T11:21:56.608Z,25.51
2022-09-07T11:22:55.192Z,25.19
2022-09-07T11:23:55.176Z,25.46
2022-09-07T11:25:55.145Z,25.94
2022-09-07T11:26:55.138Z,25.51
2022-09-07T11:27:55.120Z,25.51
2022-09-07T11:29:55.108Z,25.57
2022-09-07T11:30:59.689Z,25.51
2022-09-07T11:31:55.081Z,25.57
2022-09-07T11:32:55.092Z,25.51
2022-09-07T11:34:24.862Z,25.08
2022-09-07T11:34:56.070Z,25.19
2022-09-07T11:35:55.033Z,25.14
2022-09-07T11:36:55.027Z,25.14
2022-09-07T11:37:55.010Z,25.14
2022-09-07T11:38:55.005Z,25.14
2022-09-07T11:39:55.063Z,25.51
2022-09-07T11:40:54.975Z,25.57
2022-09-07T11:41:54.967Z,25.24
2022-09-07T11:42:54.955Z,25.30
2022-09-07T11:43:54.935Z,25.14
2022-09-07T11:44:54.935Z,25.14
2022-09-07T11:45:54.947Z,25.30
2022-09-07T11:46:54.911Z,25.08
2022-09-07T11:47:54.896Z,25.14
2022-09-07T11:48:54.902Z,25.03
2022-09-07T11:49:58.993Z,25.19
2022-09-07T11:50:54.859Z,25.08
2022-09-07T11:51:54.849Z,25.14
2022-09-07T11:52:54.901Z,25.08
2022-09-07T11:53:54.831Z,25.24
2022-09-07T11:54:54.839Z,25.19
2022-09-07T11:55:54.803Z,25.08
2022-09-07T11:56:54.818Z,25.19
2022-09-07T11:57:55.762Z,24.71
2022-09-07T11:58:54.813Z,25.19
2022-09-07T11:59:54.769Z,25.14
2022-09-07T12:00:54.753Z,24.71
2022-09-07T12:01:54.745Z,25.14
2022-09-07T12:02:59.988Z,25.35
2022-09-07T12:03:54.865Z,25.14
2022-09-07T12:04:56.484Z,25.08
2022-09-07T12:05:54.734Z,25.03
2022-09-07T12:06:54.690Z,25.46
2022-09-07T12:07:54.673Z,25.08
2022-09-07T12:08:54.666Z,24.81
2022-09-07T12:09:54.644Z,24.76
2022-09-07T12:10:54.639Z,24.76
2022-09-07T12:11:54.625Z,24.76
2022-09-07T12:12:54.622Z,25.08
2022-09-07T12:13:54.607Z,24.87
2022-09-07T12:14:54.598Z,24.71
2022-09-07T12:15:54.643Z,24.60
2022-09-07T12:16:54.574Z,24.76
2022-09-07T12:17:54.565Z,24.76
2022-09-07T12:18:54.575Z,24.76
2022-09-07T12:19:54.545Z,24.76
2022-09-07T12:20:54.524Z,24.33
2022-09-07T12:21:54.540Z,24.76
2022-09-07T12:22:54.501Z,24.65
2022-09-07T12:23:54.493Z,24.44
2022-09-07T12:24:54.479Z,24.17
2022-09-07T12:25:54.468Z,24.76
2022-09-07T12:26:54.455Z,24.76
2022-09-07T12:27:54.448Z,24.76
2022-09-07T12:28:54.436Z,24.81
2022-09-07T12:29:54.430Z,24.87
2022-09-07T12:30:54.511Z,24.71
2022-09-07T12:31:59.278Z,24.81
2022-09-07T12:32:56.862Z,24.71
2022-09-07T12:33:54.384Z,24.17
2022-09-07T12:34:54.377Z,24.71
2022-09-07T12:35:54.361Z,24.76
2022-09-07T12:36:54.343Z,24.22
2022-09-07T12:37:54.370Z,24.12
2022-09-07T12:38:54.318Z,24.87
2022-09-07T12:39:54.369Z,24.12
2022-09-07T12:40:54.298Z,24.22
2022-09-07T12:42:54.541Z,24.17
2022-09-07T12:43:54.268Z,24.76
2022-09-07T12:44:54.264Z,24.06
2022-09-07T12:45:54.319Z,24.81
2022-09-07T12:46:54.239Z,24.71
2022-09-07T12:47:54.226Z,24.01
2022-09-07T12:48:54.205Z,24.06
2022-09-07T12:49:54.198Z,24.76
2022-09-07T12:50:54.182Z,24.71
2022-09-07T12:52:09.162Z,24.17
2022-09-07T12:52:55.185Z,24.76
2022-09-07T12:53:57.557Z,24.12
2022-09-07T12:55:16.481Z,24.87
2022-09-07T12:57:54.135Z,24.65
2022-09-07T12:58:54.090Z,24.06
2022-09-07T12:59:54.600Z,24.76
2022-09-07T13:00:54.065Z,24.06
2022-09-07T13:01:54.147Z,24.92
2022-09-07T13:02:54.041Z,24.87
2022-09-07T13:03:54.035Z,24.06
2022-09-07T13:04:54.020Z,24.76
2022-09-07T13:05:54.010Z,24.12
2022-09-07T13:07:09.401Z,24.71
2022-09-07T13:08:01.672Z,24.87
2022-09-07T13:08:55.000Z,24.12
2022-09-07T13:09:53.987Z,23.96
2022-09-07T13:10:53.955Z,24.17
2022-09-07T13:11:53.940Z,24.12
2022-09-07T13:12:55.310Z,24.17
2022-09-07T13:14:03.661Z,24.71
2022-09-07T13:14:54.973Z,24.12
2022-09-07T13:15:55.422Z,24.12
2022-09-07T13:17:53.867Z,24.76
2022-09-07T13:18:53.848Z,24.17
2022-09-07T13:19:53.848Z,24.17
2022-09-07T13:20:53.838Z,24.12
2022-09-07T13:21:54.007Z,24.17
2022-09-07T13:22:53.807Z,24.01
2022-09-07T13:23:53.846Z,24.22
2022-09-07T13:24:53.773Z,24.17
2022-09-07T13:25:53.801Z,23.96
2022-09-07T13:26:53.757Z,24.01
2022-09-07T13:27:53.740Z,23.74
2022-09-07T13:28:54.798Z,24.28
2022-09-07T13:29:53.719Z,24.22
2022-09-07T13:30:53.763Z,24.33
2022-09-07T13:31:53.695Z,24.22
2022-09-07T13:33:09.219Z,24.12
2022-09-07T13:33:54.692Z,24.06
2022-09-07T13:34:53.661Z,24.17
2022-09-07T13:35:53.652Z,23.85
2022-09-07T13:36:53.636Z,24.22
2022-09-07T13:37:53.626Z,24.17